Terminal Aerodrome Forecast
Issued by NWS

Home | Current Version | Previous Version | Graphics & Text | Print | Product List | Glossary On
Versions: 1 2 3 4 5 6 7 8 9 10 11 12 13 14
000
FTUS45 KGGW 172320
TAFSDY
TAF
KSDY 172320Z 1800/1824 34011G19KT P6SM SCT110
     FM180600 34005KT P6SM FEW130
     FM181500 28004KT P6SM SKC=

USA.gov is the U.S. government's official web portal to all federal, state and local government web resources and services.